createdAt,value
2022-11-26T00:00:32.481Z,101471.06
2022-11-26T00:02:59.013Z,101471.72
2022-11-26T00:05:30.981Z,101472.91
2022-11-26T00:08:00.449Z,101480.19
2022-11-26T00:10:30.189Z,101491.91
2022-11-26T00:12:57.351Z,101481.94
2022-11-26T00:15:30.278Z,101489.84
2022-11-26T00:17:57.628Z,101499.13
2022-11-26T00:20:30.233Z,101497.41
2022-11-26T00:23:01.311Z,101508.13
2022-11-26T00:25:40.950Z,101507.09
2022-11-26T00:28:26.006Z,101514.41
2022-11-26T00:30:53.671Z,101517.28
2022-11-26T00:33:20.164Z,101512.00
2022-11-26T00:35:48.097Z,101515.59
2022-11-26T00:38:18.180Z,101513.63
2022-11-26T00:40:44.799Z,101518.75
2022-11-26T00:43:12.397Z,101521.91
2022-11-26T00:45:38.966Z,101529.59
2022-11-26T00:48:05.778Z,101534.38
2022-11-26T00:50:52.545Z,101531.72
2022-11-26T00:53:28.016Z,101530.91
2022-11-26T00:55:54.527Z,101536.16
2022-11-26T00:58:23.204Z,101539.16
2022-11-26T01:00:49.821Z,101546.31
2022-11-26T01:03:16.307Z,101549.91
2022-11-26T01:05:43.863Z,101549.34
2022-11-26T01:08:31.200Z,101556.00
2022-11-26T01:10:59.485Z,101553.75
2022-11-26T01:13:26.610Z,101554.38
2022-11-26T01:15:55.524Z,101560.78
2022-11-26T01:18:23.510Z,101561.16
2022-11-26T01:20:50.263Z,101567.53
2022-11-26T01:23:18.747Z,101566.97
2022-11-26T01:25:47.175Z,101565.50
2022-11-26T01:28:16.652Z,101567.84
2022-11-26T01:30:43.360Z,101567.84
2022-11-26T01:33:10.044Z,101582.03
2022-11-26T01:35:36.988Z,101581.16
2022-11-26T01:38:04.311Z,101581.19
2022-11-26T01:41:21.480Z,101595.94
2022-11-26T01:43:51.953Z,101594.53
2022-11-26T01:46:20.622Z,101593.69
2022-11-26T01:48:50.042Z,101597.19
2022-11-26T01:51:25.042Z,101591.91
2022-11-26T01:53:55.203Z,101601.22
2022-11-26T01:56:45.201Z,101610.84
2022-11-26T01:59:24.967Z,101605.00
2022-11-26T02:01:54.058Z,101612.50
2022-11-26T02:04:30.694Z,101612.91
2022-11-26T02:06:57.548Z,101613.00
2022-11-26T02:09:26.245Z,101623.88
2022-11-26T02:11:52.696Z,101627.53
2022-11-26T02:14:23.713Z,101626.88
2022-11-26T02:17:14.807Z,101631.72
2022-11-26T02:19:59.425Z,101629.06
2022-11-26T02:22:50.434Z,101637.81
2022-11-26T02:25:44.922Z,101634.16
2022-11-26T02:28:26.457Z,101644.19
2022-11-26T02:31:37.417Z,101642.47
2022-11-26T02:34:17.485Z,101649.03
2022-11-26T02:36:57.035Z,101651.53
2022-11-26T02:39:26.229Z,101648.72
2022-11-26T02:42:02.321Z,101653.34
2022-11-26T02:44:33.577Z,101653.22
2022-11-26T02:47:11.031Z,101655.19
2022-11-26T02:49:40.127Z,101664.59
2022-11-26T02:52:07.774Z,101674.31
2022-11-26T02:54:36.729Z,101654.00
2022-11-26T02:57:07.055Z,101670.69
2022-11-26T02:59:34.754Z,101674.53
2022-11-26T03:02:09.952Z,101675.28
2022-11-26T03:04:42.694Z,101674.28
2022-11-26T03:07:10.458Z,101665.66
2022-11-26T03:09:51.380Z,101678.41
2022-11-26T03:12:18.037Z,101693.69
2022-11-26T03:14:44.458Z,101686.53
2022-11-26T03:17:10.896Z,101692.59
2022-11-26T03:19:37.640Z,101692.38
2022-11-26T03:22:04.097Z,101695.19
2022-11-26T03:24:31.067Z,101694.69
2022-11-26T03:26:57.762Z,101706.94
2022-11-26T03:29:24.201Z,101703.84
2022-11-26T03:31:50.798Z,101704.88
2022-11-26T03:34:17.288Z,101703.03
2022-11-26T03:36:43.852Z,101706.72
2022-11-26T03:39:10.317Z,101702.94
2022-11-26T03:41:36.823Z,101702.72
2022-11-26T03:44:03.466Z,101714.00
2022-11-26T03:46:29.961Z,101704.78
2022-11-26T03:48:56.412Z,101712.38
2022-11-26T03:51:22.954Z,101709.16
2022-11-26T03:53:49.809Z,101717.50
2022-11-26T03:56:16.221Z,101713.72
2022-11-26T03:58:42.681Z,101720.72
2022-11-26T04:01:13.320Z,101726.09
2022-11-26T04:03:40.930Z,101728.16
2022-11-26T04:06:07.809Z,101722.53
2022-11-26T04:08:34.522Z,101726.09
2022-11-26T04:11:00.999Z,101733.63
2022-11-26T04:13:27.405Z,101735.03
2022-11-26T04:15:53.823Z,101734.84
2022-11-26T04:18:20.262Z,101735.28
2022-11-26T04:20:50.065Z,101743.34
2022-11-26T04:23:19.860Z,101747.91
2022-11-26T04:25:46.330Z,101748.91
2022-11-26T04:28:13.358Z,101748.09
2022-11-26T04:30:39.788Z,101750.88
2022-11-26T04:33:06.308Z,101749.00
2022-11-26T04:35:32.798Z,101760.41
2022-11-26T04:37:59.193Z,101757.22
2022-11-26T04:40:25.979Z,101762.16
2022-11-26T04:42:52.425Z,101763.16
2022-11-26T04:45:18.907Z,101765.66
2022-11-26T04:47:45.348Z,101766.06
2022-11-26T04:50:12.555Z,101775.78
2022-11-26T04:52:39.099Z,101777.97
2022-11-26T04:55:05.952Z,101771.66
2022-11-26T04:57:32.416Z,101768.72
2022-11-26T04:59:58.881Z,101777.78
2022-11-26T05:02:25.394Z,101777.38
2022-11-26T05:04:51.989Z,101784.34
2022-11-26T05:07:18.590Z,101784.75
2022-11-26T05:09:45.086Z,101787.69
2022-11-26T05:12:12.698Z,101789.38
2022-11-26T05:14:39.365Z,101781.53
2022-11-26T05:17:06.386Z,101788.91
2022-11-26T05:19:34.093Z,101787.84
2022-11-26T05:22:00.566Z,101792.34
2022-11-26T05:24:27.032Z,101794.13
2022-11-26T05:26:56.899Z,101795.28
2022-11-26T05:29:24.014Z,101791.78
2022-11-26T05:31:50.483Z,101800.56
2022-11-26T05:34:17.036Z,101799.06
2022-11-26T05:36:43.967Z,101802.69
2022-11-26T05:39:10.395Z,101804.63
2022-11-26T05:41:36.853Z,101799.34
2022-11-26T05:44:03.445Z,101817.16
2022-11-26T05:46:29.945Z,101817.16
2022-11-26T05:48:56.466Z,101815.53
2022-11-26T05:51:22.976Z,101813.81
2022-11-26T05:53:49.406Z,101812.16
2022-11-26T05:56:15.840Z,101821.81
2022-11-26T05:58:43.114Z,101821.22
2022-11-26T06:01:10.390Z,101821.22
2022-11-26T06:03:37.679Z,101819.47
2022-11-26T06:06:04.732Z,101817.91
2022-11-26T06:08:31.790Z,101833.72
2022-11-26T06:10:58.334Z,101825.84
2022-11-26T06:13:24.975Z,101817.06
2022-11-26T06:15:51.809Z,101837.16
2022-11-26T06:18:18.218Z,101832.72
2022-11-26T06:20:45.683Z,101849.66
2022-11-26T06:23:12.164Z,101844.34
2022-11-26T06:25:42.077Z,101846.28
2022-11-26T06:28:08.761Z,101850.50
2022-11-26T06:30:35.202Z,101861.00
2022-11-26T06:33:01.791Z,101860.09
2022-11-26T06:35:28.371Z,101864.03
2022-11-26T06:37:54.830Z,101871.84
2022-11-26T06:40:21.263Z,101872.53
2022-11-26T06:42:51.802Z,101879.66
2022-11-26T06:45:19.036Z,101877.94
2022-11-26T06:47:47.324Z,101884.63
2022-11-26T06:50:15.549Z,101886.66
2022-11-26T06:52:42.082Z,101884.56
2022-11-26T06:55:09.068Z,101891.69
2022-11-26T06:57:35.700Z,101888.94
2022-11-26T07:00:02.199Z,101897.66
2022-11-26T07:02:28.761Z,101895.06
2022-11-26T07:04:55.225Z,101901.16
2022-11-26T07:07:21.715Z,101904.91
2022-11-26T07:09:48.369Z,101907.56
2022-11-26T07:12:14.784Z,101904.44
2022-11-26T07:14:42.803Z,101912.53
2022-11-26T07:17:09.309Z,101908.13
2022-11-26T07:19:35.733Z,101909.56
2022-11-26T07:22:02.551Z,101911.19
2022-11-26T07:24:29.076Z,101924.06
2022-11-26T07:26:56.226Z,101922.56
2022-11-26T07:29:22.685Z,101932.16
2022-11-26T07:31:49.132Z,101922.16
2022-11-26T07:34:15.636Z,101933.16
2022-11-26T07:36:43.465Z,101925.03
2022-11-26T07:39:11.812Z,101936.91
2022-11-26T07:41:38.653Z,101938.34
2022-11-26T07:44:05.166Z,101936.06
2022-11-26T07:46:31.681Z,101932.28
2022-11-26T07:48:58.210Z,101943.81
2022-11-26T07:51:31.042Z,101941.47
2022-11-26T07:53:59.535Z,101940.44
2022-11-26T07:56:27.027Z,101947.91
2022-11-26T07:58:53.494Z,101942.94
2022-11-26T08:01:23.414Z,101941.94
2022-11-26T08:03:51.168Z,101948.56
2022-11-26T08:06:23.436Z,101954.06
2022-11-26T08:08:50.448Z,101945.53
2022-11-26T08:11:22.580Z,101956.47
2022-11-26T08:13:52.455Z,101969.06
2022-11-26T08:16:19.011Z,101963.03
2022-11-26T08:18:45.481Z,101959.38
2022-11-26T08:21:11.930Z,101967.03
2022-11-26T08:23:38.700Z,101973.84
2022-11-26T08:26:24.024Z,101975.50
2022-11-26T08:28:54.466Z,101972.97
2022-11-26T08:31:21.130Z,101972.69
2022-11-26T08:33:47.958Z,101979.06
2022-11-26T08:36:14.442Z,101975.06
2022-11-26T08:38:41.209Z,101986.41
2022-11-26T08:41:10.881Z,101990.25
2022-11-26T08:46:25.892Z,101994.84
2022-11-26T08:48:55.623Z,101999.09
2022-11-26T08:51:22.252Z,101999.88
2022-11-26T08:53:48.685Z,102006.84
2022-11-26T08:56:15.165Z,102007.78
2022-11-26T08:58:44.991Z,102000.69
2022-11-26T09:01:17.338Z,101992.41
2022-11-26T09:03:44.552Z,101996.56
2022-11-26T09:06:11.345Z,101989.47
2022-11-26T09:08:57.165Z,101991.41
2022-11-26T09:11:25.745Z,101991.63
2022-11-26T09:13:53.418Z,101998.81
2022-11-26T09:16:21.384Z,102006.00
2022-11-26T09:18:47.840Z,102006.03
2022-11-26T09:21:14.391Z,101993.03
2022-11-26T09:23:40.938Z,102005.13
2022-11-26T09:26:07.389Z,102006.53
2022-11-26T09:28:33.894Z,102001.13
2022-11-26T09:31:01.426Z,101995.75
2022-11-26T09:33:29.065Z,101996.19
2022-11-26T09:36:04.010Z,101996.84
2022-11-26T09:38:30.509Z,102000.34
2022-11-26T09:40:59.827Z,101998.13
2022-11-26T09:43:36.074Z,101996.41
2022-11-26T09:46:03.896Z,101998.94
2022-11-26T09:48:32.392Z,101999.78
2022-11-26T09:51:08.632Z,102007.28
2022-11-26T09:53:40.437Z,102012.78
2022-11-26T09:56:13.320Z,102014.00
2022-11-26T09:58:50.347Z,102024.59
2022-11-26T10:01:22.921Z,102017.88
2022-11-26T10:03:50.777Z,102029.34
2022-11-26T10:06:29.417Z,102028.41
2022-11-26T10:09:07.953Z,102029.66
2022-11-26T10:11:55.632Z,102032.09
2022-11-26T10:14:31.262Z,102015.81
2022-11-26T10:17:16.061Z,102019.25
2022-11-26T10:20:00.765Z,102029.06
2022-11-26T10:22:45.969Z,102025.22
2022-11-26T10:25:20.635Z,102019.81
2022-11-26T10:27:49.437Z,102025.75
2022-11-26T10:30:20.483Z,102024.50
2022-11-26T10:32:48.791Z,102020.88
2022-11-26T10:35:18.354Z,102020.63
2022-11-26T10:37:45.269Z,102015.41
2022-11-26T10:40:21.686Z,102029.88
2022-11-26T10:43:03.939Z,102027.75
2022-11-26T10:45:39.960Z,102032.78
2022-11-26T10:48:32.049Z,102028.09
2022-11-26T10:54:07.487Z,102033.03
2022-11-26T10:56:44.028Z,102030.97
2022-11-26T10:59:28.629Z,102035.69
2022-11-26T11:02:00.951Z,102029.34
2022-11-26T11:04:30.217Z,102034.78
2022-11-26T11:06:57.426Z,102032.78
2022-11-26T11:09:33.615Z,102034.44
2022-11-26T11:12:18.991Z,102037.25
2022-11-26T11:14:47.371Z,102043.88
2022-11-26T11:17:30.298Z,102047.03
2022-11-26T11:19:59.312Z,102048.88
2022-11-26T11:22:27.049Z,102052.97
2022-11-26T11:24:55.685Z,102054.47
2022-11-26T11:27:28.313Z,102056.19
2022-11-26T11:30:00.820Z,102063.97
2022-11-26T11:32:39.164Z,102053.50
2022-11-26T11:35:23.890Z,102064.31
2022-11-26T11:37:55.295Z,102059.50
2022-11-26T11:40:28.908Z,102052.63
2022-11-26T11:43:04.010Z,102053.53
2022-11-26T11:45:34.888Z,102060.09
2022-11-26T11:48:24.647Z,102064.75
2022-11-26T11:50:58.145Z,102053.34
2022-11-26T11:53:59.815Z,102060.53
2022-11-26T11:56:50.552Z,102057.50
2022-11-26T11:59:37.397Z,102056.63
2022-11-26T12:02:27.095Z,102056.22
2022-11-26T12:05:06.363Z,102052.59
2022-11-26T12:07:44.724Z,102046.34
2022-11-26T12:10:16.545Z,102044.53
2022-11-26T12:12:50.702Z,102055.06
2022-11-26T12:15:30.584Z,102050.91
2022-11-26T12:18:27.244Z,102058.69
2022-11-26T12:20:56.825Z,102054.25
2022-11-26T12:23:36.592Z,102058.38
2022-11-26T12:26:10.353Z,102042.56
2022-11-26T12:29:26.164Z,102049.56
2022-11-26T12:31:57.984Z,102043.00
2022-11-26T12:34:52.545Z,102046.47
2022-11-26T12:37:36.893Z,102047.25
2022-11-26T12:40:09.016Z,102047.38
2022-11-26T12:42:47.956Z,102049.97
2022-11-26T12:45:32.925Z,102052.22
2022-11-26T12:48:43.596Z,102046.00
2022-11-26T12:51:29.129Z,102049.53
2022-11-26T12:54:13.759Z,102046.84
2022-11-26T12:56:52.786Z,102042.75
2022-11-26T12:59:46.230Z,102036.75
2022-11-26T13:02:36.317Z,102039.59
2022-11-26T13:05:03.681Z,102028.13
2022-11-26T13:07:32.864Z,102035.06
2022-11-26T13:10:18.038Z,102026.63
2022-11-26T13:13:06.549Z,102031.94
2022-11-26T13:15:42.067Z,102037.44
2022-11-26T13:18:18.606Z,102039.78
2022-11-26T13:21:10.242Z,102041.56
2022-11-26T13:24:00.151Z,102038.41
2022-11-26T13:27:01.585Z,102034.94
2022-11-26T13:29:27.934Z,102028.59
2022-11-26T13:32:41.713Z,102024.34
2022-11-26T13:35:45.727Z,102023.44
2022-11-26T13:38:24.509Z,102021.25
2022-11-26T13:40:58.570Z,102026.00
2022-11-26T13:43:34.297Z,102028.78
2022-11-26T13:46:08.207Z,102030.28
2022-11-26T13:48:53.495Z,102028.66
2022-11-26T13:51:49.404Z,102038.72
2022-11-26T13:54:31.946Z,102037.00
2022-11-26T13:57:08.563Z,102029.34
2022-11-26T13:59:36.719Z,102030.28
2022-11-26T14:02:34.661Z,102034.84
2022-11-26T14:05:03.576Z,102041.31
2022-11-26T14:07:30.591Z,102034.00
2022-11-26T14:10:00.914Z,102037.75
2022-11-26T14:13:01.540Z,102035.94
2022-11-26T14:15:55.751Z,102039.88
2022-11-26T14:18:48.402Z,102036.13
2022-11-26T14:21:23.678Z,102045.50
2022-11-26T14:23:52.656Z,102050.91
2022-11-26T14:26:34.257Z,102057.34
2022-11-26T14:29:13.314Z,102063.53
2022-11-26T14:31:49.062Z,102067.78
2022-11-26T14:34:38.443Z,102062.44
2022-11-26T14:37:20.306Z,102066.56
2022-11-26T14:39:56.745Z,102060.50
2022-11-26T14:42:23.189Z,102062.91
2022-11-26T14:45:20.326Z,102070.41
2022-11-26T14:47:51.333Z,102065.00
2022-11-26T14:50:22.305Z,102068.59
2022-11-26T14:52:58.390Z,102070.56
2022-11-26T14:55:30.096Z,102067.84
2022-11-26T14:57:59.315Z,102072.97
2022-11-26T15:00:27.865Z,102064.25
2022-11-26T15:02:54.871Z,102068.69
2022-11-26T15:05:27.117Z,102075.19
2022-11-26T15:08:05.065Z,102070.97
2022-11-26T15:10:37.786Z,102068.78
2022-11-26T15:13:14.407Z,102068.94
2022-11-26T15:15:55.635Z,102071.91
2022-11-26T15:18:28.459Z,102066.91
2022-11-26T15:20:55.625Z,102065.06
2022-11-26T15:23:31.022Z,102065.38
2022-11-26T15:25:58.914Z,102075.00
2022-11-26T15:28:25.621Z,102058.53
2022-11-26T15:31:03.797Z,102059.00
2022-11-26T15:33:35.414Z,102064.03
2022-11-26T15:36:02.836Z,102062.97
2022-11-26T15:38:50.257Z,102064.00
2022-11-26T15:41:19.571Z,102065.34
2022-11-26T15:43:51.652Z,102045.34
2022-11-26T15:46:21.246Z,102052.19
2022-11-26T15:49:01.851Z,102057.88
2022-11-26T15:51:35.977Z,102062.09
2022-11-26T15:54:06.260Z,102071.53
2022-11-26T15:56:37.816Z,102072.41
2022-11-26T15:59:15.122Z,102066.47
2022-11-26T16:01:45.394Z,102073.63
2022-11-26T16:04:33.724Z,102068.31
2022-11-26T16:07:10.041Z,102067.88
2022-11-26T16:09:36.541Z,102058.22
2022-11-26T16:12:03.226Z,102061.84
2022-11-26T16:14:39.719Z,102059.13
2022-11-26T16:17:10.908Z,102065.56
2022-11-26T16:19:47.336Z,102065.09
2022-11-26T16:22:16.640Z,102069.59
2022-11-26T16:24:44.022Z,102065.41
2022-11-26T16:27:22.533Z,102068.94
2022-11-26T16:29:49.176Z,102078.84
2022-11-26T16:32:17.389Z,102077.16
2022-11-26T16:34:44.666Z,102086.00
2022-11-26T16:37:27.731Z,102084.56
2022-11-26T16:40:13.818Z,102085.50
2022-11-26T16:42:40.345Z,102095.66
2022-11-26T16:45:07.657Z,102090.25
2022-11-26T16:47:41.280Z,102094.84
2022-11-26T16:50:17.141Z,102097.25
2022-11-26T16:52:43.809Z,102092.03
2022-11-26T16:55:14.927Z,102089.13
2022-11-26T16:57:45.529Z,102091.22
2022-11-26T17:00:18.754Z,102087.59
2022-11-26T17:02:45.930Z,102092.97
2022-11-26T17:05:13.401Z,102088.66
2022-11-26T17:07:58.997Z,102097.06
2022-11-26T17:10:30.321Z,102100.81
2022-11-26T17:12:57.481Z,102101.72
2022-11-26T17:15:23.947Z,102101.03
2022-11-26T17:18:00.594Z,102094.09
2022-11-26T17:20:27.112Z,102093.16
2022-11-26T17:22:54.209Z,102106.56
2022-11-26T17:25:20.684Z,102100.50
2022-11-26T17:27:47.906Z,102101.72
2022-11-26T17:30:20.050Z,102084.00
2022-11-26T17:32:46.847Z,102085.84
2022-11-26T17:35:13.342Z,102090.13
2022-11-26T17:37:40.292Z,102095.34
2022-11-26T17:40:23.791Z,102088.28
2022-11-26T17:42:51.112Z,102089.31
2022-11-26T17:45:18.147Z,102085.38
2022-11-26T17:47:45.499Z,102088.78
2022-11-26T17:50:18.950Z,102078.53
2022-11-26T17:52:46.161Z,102075.72
2022-11-26T17:55:13.509Z,102080.09
2022-11-26T17:57:39.963Z,102079.22
2022-11-26T18:00:11.332Z,102075.63
2022-11-26T18:02:37.861Z,102072.03
2022-11-26T18:05:04.647Z,102078.31
2022-11-26T18:07:31.170Z,102073.31
2022-11-26T18:09:57.891Z,102076.75
2022-11-26T18:12:27.212Z,102073.50
2022-11-26T18:14:54.888Z,102071.91
2022-11-26T18:17:21.666Z,102069.13
2022-11-26T18:19:48.380Z,102072.81
2022-11-26T18:22:18.897Z,102075.56
2022-11-26T18:24:56.441Z,102073.06
2022-11-26T18:27:27.221Z,102073.81
2022-11-26T18:29:53.816Z,102073.66
2022-11-26T18:32:20.373Z,102079.84
2022-11-26T18:34:49.811Z,102084.50
2022-11-26T18:37:17.276Z,102075.50
2022-11-26T18:39:43.886Z,102081.00
2022-11-26T18:44:57.898Z,102087.16
2022-11-26T18:47:24.404Z,102090.00
2022-11-26T18:49:51.071Z,102079.47
2022-11-26T18:52:17.680Z,102089.78
2022-11-26T18:54:44.138Z,102094.97
2022-11-26T18:57:10.679Z,102085.38
2022-11-26T18:59:37.508Z,102081.88
2022-11-26T19:02:04.874Z,102074.84
2022-11-26T19:04:31.469Z,102086.28
2022-11-26T19:06:57.915Z,102082.03
2022-11-26T19:09:24.430Z,102075.81
2022-11-26T19:11:54.180Z,102082.78
2022-11-26T19:14:21.122Z,102081.00
2022-11-26T19:16:50.401Z,102064.13
2022-11-26T19:19:17.419Z,102071.47
2022-11-26T19:21:43.927Z,102066.16
2022-11-26T19:24:11.663Z,102058.22
2022-11-26T19:26:39.030Z,102070.59
2022-11-26T19:29:06.323Z,102069.72
2022-11-26T19:31:39.536Z,102071.50
2022-11-26T19:34:09.944Z,102066.31
2022-11-26T19:36:37.241Z,102076.94
2022-11-26T19:39:04.601Z,102070.84
2022-11-26T19:41:31.068Z,102069.13
2022-11-26T19:44:00.213Z,102068.75
2022-11-26T19:46:27.723Z,102067.44
2022-11-26T19:48:55.605Z,102071.81
2022-11-26T19:51:23.880Z,102077.28
2022-11-26T19:53:54.011Z,102073.72
2022-11-26T19:56:26.536Z,102074.50
2022-11-26T19:58:54.204Z,102076.13
2022-11-26T20:01:21.702Z,102069.16
2022-11-26T20:03:48.271Z,102072.06
2022-11-26T20:06:20.513Z,102072.94
2022-11-26T20:08:47.827Z,102067.13
2022-11-26T20:11:15.247Z,102066.44
2022-11-26T20:13:43.580Z,102068.06
2022-11-26T20:16:13.108Z,102062.81
2022-11-26T20:18:40.727Z,102064.53
2022-11-26T20:21:22.339Z,102067.13
2022-11-26T20:23:50.299Z,102063.56
2022-11-26T20:26:21.738Z,102062.19
2022-11-26T20:28:48.947Z,102061.38
2022-11-26T20:31:20.526Z,102055.88
2022-11-26T20:33:52.652Z,102054.16
2022-11-26T20:36:20.937Z,102054.28
2022-11-26T20:38:51.087Z,102055.22
2022-11-26T20:41:17.582Z,102061.31
2022-11-26T20:43:44.639Z,102058.69
2022-11-26T20:46:13.114Z,102061.41
2022-11-26T20:48:41.287Z,102057.56
2022-11-26T20:51:14.079Z,102062.91
2022-11-26T20:53:42.171Z,102055.03
2022-11-26T20:56:09.300Z,102052.50
2022-11-26T20:58:36.024Z,102058.06
2022-11-26T21:01:02.651Z,102059.88
2022-11-26T21:03:29.593Z,102052.16
2022-11-26T21:05:56.002Z,102055.63
2022-11-26T21:08:23.162Z,102056.81
2022-11-26T21:10:50.328Z,102060.91
2022-11-26T21:13:18.616Z,102064.38
2022-11-26T21:15:49.052Z,102052.44
2022-11-26T21:18:15.849Z,102048.69
2022-11-26T21:20:43.554Z,102056.09
2022-11-26T21:23:11.987Z,102051.38
2022-11-26T21:25:43.289Z,102049.16
2022-11-26T21:28:11.294Z,102050.59
2022-11-26T21:30:38.441Z,102059.63
2022-11-26T21:33:09.274Z,102066.59
2022-11-26T21:35:36.672Z,102065.78
2022-11-26T21:38:04.046Z,102065.81
2022-11-26T21:40:30.563Z,102063.34
2022-11-26T21:42:57.080Z,102053.38
2022-11-26T21:45:24.088Z,102058.94
2022-11-26T21:47:51.678Z,102063.25
2022-11-26T21:50:19.475Z,102063.00
2022-11-26T21:52:46.565Z,102066.69
2022-11-26T21:55:13.081Z,102058.72
2022-11-26T21:57:39.506Z,102072.81
2022-11-26T22:00:06.791Z,102062.19
2022-11-26T22:02:33.297Z,102071.97
2022-11-26T22:04:59.730Z,102069.44
2022-11-26T22:07:26.323Z,102060.53
2022-11-26T22:09:53.115Z,102065.72
2022-11-26T22:12:19.545Z,102069.63
2022-11-26T22:14:46.078Z,102074.16
2022-11-26T22:17:12.509Z,102081.81
2022-11-26T22:19:39.200Z,102078.22
2022-11-26T22:22:05.857Z,102073.94
2022-11-26T22:24:32.572Z,102081.31
2022-11-26T22:26:59.313Z,102081.09
2022-11-26T22:29:26.058Z,102086.47
2022-11-26T22:31:52.542Z,102081.97
2022-11-26T22:34:21.947Z,102074.03
2022-11-26T22:36:48.559Z,102067.13
2022-11-26T22:39:16.727Z,102076.16
2022-11-26T22:41:44.845Z,102072.28
2022-11-26T22:44:12.562Z,102071.31
2022-11-26T22:46:39.189Z,102066.41
2022-11-26T22:49:07.402Z,102069.22
2022-11-26T22:51:35.360Z,102062.31
2022-11-26T22:54:04.635Z,102066.03
2022-11-26T22:56:32.165Z,102062.81
2022-11-26T22:58:59.946Z,102066.88
2022-11-26T23:01:29.017Z,102055.19
2022-11-26T23:03:56.847Z,102060.31
2022-11-26T23:06:25.540Z,102066.16
2022-11-26T23:08:52.216Z,102071.44
2022-11-26T23:11:26.781Z,102074.06
2022-11-26T23:13:54.034Z,102075.00
2022-11-26T23:16:22.310Z,102070.56
2022-11-26T23:18:48.748Z,102073.19
2022-11-26T23:21:17.016Z,102071.56
2022-11-26T23:23:44.266Z,102074.16
2022-11-26T23:26:14.758Z,102064.63
2022-11-26T23:28:41.311Z,102052.44
2022-11-26T23:31:16.156Z,102053.28
2022-11-26T23:33:42.851Z,102050.59
2022-11-26T23:36:09.963Z,102048.53
2022-11-26T23:38:36.421Z,102043.91
2022-11-26T23:41:05.410Z,102038.66
2022-11-26T23:43:33.603Z,102038.81
2022-11-26T23:46:04.794Z,102040.00
2022-11-26T23:48:31.504Z,102023.16
2022-11-26T23:50:58.010Z,102024.91
2022-11-26T23:53:25.170Z,102017.31
2022-11-26T23:55:51.754Z,102017.16
2022-11-26T23:58:18.233Z,102006.66
